Time;durP1;ratioP1;P1;durP2;ratioP2;P2;SDS_P1;SDS_P2;PMS_P1;PMS_P2;Temp;Humidity;BMP_temperature;BMP_pressure;BME280_temperature;BME280_humidity;BME280_pressure;Samples;Min_cycle;Max_cycle;Signal;HPM_P1;HPM_P2
2022/06/21 09:06:53;;;;;;;10.68;8.45;;;;;;;;;;6155068;23;20022;-78
2022/06/21 09:09:48;;;;;;;12.60;8.32;;;;;;;;;;6157961;23;20088;-79
2022/06/21 09:12:33;;;;;;;11.27;8.63;;;;;;;;;;6111420;23;20495;-78
2022/06/21 09:15:27;;;;;;;14.85;9.25;;;;;;;;;;6128200;23;20072;-78
2022/06/21 09:18:07;;;;;;;11.60;8.50;;;;;;;;;;6063645;23;20092;-78
2022/06/21 09:20:41;;;;;;;8.68;7.78;;;;;;;;;;6128319;23;20009;-77
2022/06/21 09:23:15;;;;;;;9.95;8.95;;;;;;;;;;6128305;23;20568;-85
2022/06/21 09:26:11;;;;;;;10.45;8.65;;;;;;;;;;6127972;23;20012;-77
2022/06/21 09:28:51;;;;;;;11.02;9.07;;;;;;;;;;6128501;23;20033;-74
2022/06/21 09:31:46;;;;;;;9.25;8.35;;;;;;;;;;6128498;23;20157;-75
2022/06/21 09:34:39;;;;;;;10.38;8.77;;;;;;;;;;6127967;23;20006;-75
2022/06/21 09:37:24;;;;;;;9.85;7.75;;;;;;;;;;6128425;23;20029;-76
2022/06/21 09:40:00;;;;;;;10.98;7.93;;;;;;;;;;6128250;23;20421;-76
2022/06/21 09:42:42;;;;;;;10.98;7.43;;;;;;;;;;6127731;23;20433;-77
2022/06/21 09:45:33;;;;;;;7.47;6.78;;;;;;;;;;6128012;23;20333;-76
2022/06/21 09:48:03;;;;;;;6.70;5.95;;;;;;;;;;6128303;23;20002;-76
2022/06/21 09:50:29;;;;;;;9.07;7.90;;;;;;;;;;6128407;23;20009;-77
2022/06/21 09:52:56;;;;;;;9.52;8.02;;;;;;;;;;6126249;23;20010;-76
2022/06/21 09:55:41;;;;;;;10.45;7.90;;;;;;;;;;6128062;23;20080;-77
2022/06/21 09:58:32;;;;;;;9.85;7.65;;;;;;;;;;6128125;23;20084;-76
2022/06/21 10:01:00;;;;;;;9.20;7.55;;;;;;;;;;6101873;23;20333;-77
2022/06/21 10:04:13;;;;;;;10.73;7.63;;;;;;;;;;6127757;23;20033;-76
2022/06/21 10:06:56;;;;;;;9.55;7.43;;;;;;;;;;6127971;23;20036;-76
2022/06/21 10:09:27;;;;;;;8.15;7.30;;;;;;;;;;6127705;23;20002;-77
2022/06/21 10:12:05;;;;;;;11.38;7.90;;;;;;;;;;6101903;23;20373;-77
2022/06/21 10:14:36;;;;;;;9.13;7.70;;;;;;;;;;6127670;23;20006;-80
2022/06/21 10:17:19;;;;;;;7.90;7.15;;;;;;;;;;6128277;23;20002;-78
2022/06/21 10:20:00;;;;;;;8.10;7.40;;;;;;;;;;6127620;23;20010;-78
2022/06/21 10:22:50;;;;;;;8.38;7.53;;;;;;;;;;6127608;23;20037;-78
2022/06/21 10:25:33;;;;;;;13.38;8.75;;;;;;;;;;6127787;23;20033;-78
2022/06/21 10:28:20;;;;;;;8.73;7.43;;;;;;;;;;6127577;23;20009;-78
2022/06/21 10:31:04;;;;;;;10.63;7.50;;;;;;;;;;6127493;23;20002;-79
2022/06/21 10:33:45;;;;;;;10.07;8.23;;;;;;;;;;6127454;23;20010;-80
2022/06/21 10:36:28;;;;;;;10.52;7.85;;;;;;;;;;6127699;23;20106;-81
2022/06/21 10:39:10;;;;;;;8.18;7.47;;;;;;;;;;6127502;23;20010;-80
2022/06/21 10:45:05;;;;;;;8.13;7.38;;;;;;;;;;6088082;23;20337;-82
2022/06/21 10:47:48;;;;;;;9.35;7.85;;;;;;;;;;6127449;23;20002;-82
2022/06/21 10:50:49;;;;;;;9.75;7.75;;;;;;;;;;6127723;23;20081;-79
2022/06/21 10:53:24;;;;;;;7.32;6.63;;;;;;;;;;6126958;23;20445;-82
2022/06/21 10:55:49;;;;;;;9.40;7.78;;;;;;;;;;6127009;23;20009;-78
2022/06/21 10:58:44;;;;;;;8.88;7.95;;;;;;;;;;6127088;23;20298;-79
2022/06/21 11:01:42;;;;;;;9.73;7.65;;;;;;;;;;6127261;23;20017;-77
2022/06/21 11:04:46;;;;;;;10.73;7.47;;;;;;;;;;6127090;23;20037;-78
2022/06/21 11:07:32;;;;;;;10.10;7.72;;;;;;;;;;6085470;23;20022;-78
2022/06/21 11:10:11;;;;;;;9.73;7.70;;;;;;;;;;6127142;23;20010;-79
2022/06/21 11:12:54;;;;;;;11.95;7.70;;;;;;;;;;6126732;23;20005;-78
2022/06/21 11:15:22;;;;;;;8.10;7.38;;;;;;;;;;6127248;23;20009;-78
2022/06/21 11:18:13;;;;;;;8.50;7.60;;;;;;;;;;6127127;23;20006;-79
2022/06/21 11:20:58;;;;;;;11.48;7.93;;;;;;;;;;6126917;23;20044;-78
2022/06/21 11:23:37;;;;;;;8.10;7.20;;;;;;;;;;6126802;23;20006;-79
2022/06/21 11:26:08;;;;;;;;;;;;;;;;;;6127584;23;20307;-78
2022/06/21 11:28:33;;;;;;;8.43;7.55;;;;;;;;;;6127408;23;20232;-79
2022/06/21 11:31:07;;;;;;;10.77;7.53;;;;;;;;;;6126973;23;20002;-78
2022/06/21 11:33:51;;;;;;;10.55;7.45;;;;;;;;;;6127021;23;20045;-82
2022/06/21 11:36:47;;;;;;;10.23;7.85;;;;;;;;;;6100919;23;20110;-81
2022/06/21 11:39:33;;;;;;;11.60;7.25;;;;;;;;;;6126755;23;20546;-83
2022/06/21 11:42:23;;;;;;;14.10;8.55;;;;;;;;;;6126641;23;20006;-81
2022/06/21 17:18:44;;;;;;;10.73;7.80;;;;;;;;;;6213349;23;20024;-80
2022/06/21 17:21:20;;;;;;;14.07;8.63;;;;;;;;;;6218150;23;20327;-80
2022/06/21 17:23:51;;;;;;;8.60;7.15;;;;;;;;;;6217687;23;20008;-78
2022/06/21 17:26:17;;;;;;;8.55;6.95;;;;;;;;;;6213646;23;20323;-79
2022/06/21 17:28:51;;;;;;;9.63;6.40;;;;;;;;;;6187551;23;20036;-79
2022/06/21 17:31:47;;;;;;;10.50;7.55;;;;;;;;;;6187393;23;20036;-81
2022/06/21 17:34:23;;;;;;;10.25;6.35;;;;;;;;;;6187327;23;20001;-81
2022/06/21 17:36:55;;;;;;;9.45;7.47;;;;;;;;;;6187201;23;20092;-80
2022/06/21 17:39:26;;;;;;;8.60;6.65;;;;;;;;;;6187856;23;20076;-80
2022/06/21 17:42:01;;;;;;;7.70;6.75;;;;;;;;;;6187358;23;20313;-82
2022/06/21 17:44:29;;;;;;;9.57;7.18;;;;;;;;;;6185563;23;20013;-80
2022/06/21 17:46:59;;;;;;;12.53;7.13;;;;;;;;;;6187297;23;20080;-80
2022/06/21 17:49:37;;;;;;;9.00;7.32;;;;;;;;;;6187104;23;20001;-80
2022/06/21 17:52:14;;;;;;;11.60;7.63;;;;;;;;;;6187314;23;20001;-80
2022/06/21 17:54:47;;;;;;;8.15;6.55;;;;;;;;;;6187098;23;20087;-84
2022/06/21 17:57:17;;;;;;;8.48;7.00;;;;;;;;;;6187200;23;19997;-81
2022/06/21 17:59:43;;;;;;;9.88;6.78;;;;;;;;;;6187545;23;20001;-81
2022/06/21 18:02:31;;;;;;;10.68;7.15;;;;;;;;;;6186629;23;20009;-82
2022/06/21 18:05:19;;;;;;;9.25;6.45;;;;;;;;;;6187387;23;20098;-80
2022/06/21 18:08:09;;;;;;;10.48;8.48;;;;;;;;;;6187161;23;20001;-81
2022/06/21 18:10:41;;;;;;;11.57;7.43;;;;;;;;;;6185559;23;20005;-83
2022/06/21 18:13:25;;;;;;;9.20;7.43;;;;;;;;;;6186947;23;20056;-83
2022/06/21 18:16:22;;;;;;;8.43;6.65;;;;;;;;;;6186900;23;20439;-83
2022/06/21 18:19:23;;;;;;;7.93;6.78;;;;;;;;;;6187100;23;20013;-84
2022/06/21 18:22:09;;;;;;;7.85;6.65;;;;;;;;;;6186548;23;20045;-82
2022/06/21 18:25:03;;;;;;;9.52;7.10;;;;;;;;;;6176075;23;20009;-83
2022/06/21 18:27:50;;;;;;;9.70;6.38;;;;;;;;;;6185490;23;20005;-81
2022/06/21 18:31:04;;;;;;;8.70;6.57;;;;;;;;;;6187168;23;20440;-81
2022/06/21 18:33:30;;;;;;;10.00;6.82;;;;;;;;;;6187089;23;20005;-81
2022/06/21 18:36:06;;;;;;;7.60;6.57;;;;;;;;;;6186825;23;20011;-81
2022/06/21 18:38:38;;;;;;;9.65;7.25;;;;;;;;;;6186767;23;20001;-81
2022/06/21 18:41:07;;;;;;;9.05;7.30;;;;;;;;;;6187151;23;20015;-82
2022/06/21 18:43:46;;;;;;;12.10;10.82;;;;;;;;;;6187077;23;20009;-82
2022/06/21 18:46:26;;;;;;;14.00;8.93;;;;;;;;;;6186788;23;20071;-81
2022/06/21 18:49:00;;;;;;;10.23;7.40;;;;;;;;;;6186644;23;20026;-81
2022/06/21 18:51:43;;;;;;;7.90;6.97;;;;;;;;;;6186782;23;20375;-82
2022/06/21 18:54:36;;;;;;;9.68;6.43;;;;;;;;;;6185456;23;20309;-82
2022/06/21 18:57:04;;;;;;;9.15;7.00;;;;;;;;;;6186618;23;20001;-81
2022/06/21 18:59:53;;;;;;;8.95;6.72;;;;;;;;;;6186376;23;20005;-82
2022/06/21 19:02:33;;;;;;;8.15;6.47;;;;;;;;;;6186537;23;20009;-82
2022/06/21 19:08:28;;;;;;;10.38;7.05;;;;;;;;;;6186382;23;20016;-82
2022/06/21 19:11:06;;;;;;;10.13;6.78;;;;;;;;;;6186474;23;20005;-82
2022/06/21 19:13:41;;;;;;;10.40;7.28;;;;;;;;;;6185998;23;20008;-82
2022/06/21 19:16:30;;;;;;;8.82;7.38;;;;;;;;;;6186175;23;20013;-82
2022/06/21 19:19:15;;;;;;;9.10;8.20;;;;;;;;;;6186045;23;20353;-82
2022/06/21 19:21:59;;;;;;;9.30;7.15;;;;;;;;;;6186107;23;20351;-82
2022/06/21 19:24:24;;;;;;;10.55;7.78;;;;;;;;;;6186090;23;20012;-82
2022/06/21 19:26:56;;;;;;;10.70;7.25;;;;;;;;;;6186193;23;20029;-82
2022/06/21 19:29:46;;;;;;;9.82;8.57;;;;;;;;;;6186285;23;20005;-82
2022/06/21 19:32:30;;;;;;;11.05;7.70;;;;;;;;;;6186307;23;20012;-82
2022/06/21 19:35:26;;;;;;;8.82;7.10;;;;;;;;;;6184545;23;20092;-82
2022/06/21 19:38:33;;;;;;;10.68;6.72;;;;;;;;;;6186101;23;20001;-82
2022/06/21 19:41:16;;;;;;;10.35;6.95;;;;;;;;;;6186207;23;20463;-82
2022/06/21 19:44:10;;;;;;;10.93;7.47;;;;;;;;;;6185632;23;20005;-83
2022/06/21 19:46:52;;;;;;;8.38;6.78;;;;;;;;;;6186017;23;20432;-82
2022/06/21 19:49:26;;;;;;;13.32;8.10;;;;;;;;;;6186229;23;20034;-83
2022/06/21 19:51:56;;;;;;;8.63;7.60;;;;;;;;;;6185774;23;20067;-82
2022/06/21 19:54:48;;;;;;;9.23;7.20;;;;;;;;;;6186183;23;20001;-82
2022/06/21 19:57:34;;;;;;;8.93;7.03;;;;;;;;;;6186080;23;20029;-83
2022/06/21 20:00:08;;;;;;;11.93;8.13;;;;;;;;;;6185826;23;20005;-82
2022/06/21 20:02:48;;;;;;;8.07;7.35;;;;;;;;;;6185718;23;20009;-82
2022/06/21 20:05:18;;;;;;;10.32;7.88;;;;;;;;;;6185824;23;20440;-82
2022/06/21 20:07:55;;;;;;;11.10;8.32;;;;;;;;;;6185909;23;20004;-82
2022/06/21 20:10:51;;;;;;;11.63;8.10;;;;;;;;;;6186149;23;20008;-90
2022/06/21 20:13:23;;;;;;;10.30;8.18;;;;;;;;;;6191415;23;20005;-94
2022/06/21 20:16:17;;;;;;;11.98;8.45;;;;;;;;;;6187776;23;20005;-92
2022/06/21 20:18:54;;;;;;;10.63;8.68;;;;;;;;;;6189169;23;20021;-95
2022/06/21 20:21:45;;;;;;;11.88;8.00;;;;;;;;;;6188016;23;20012;-89
2022/06/21 20:24:37;;;;;;;9.98;7.68;;;;;;;;;;6186229;23;20420;-87
2022/06/21 20:27:37;;;;;;;10.95;7.30;;;;;;;;;;6188673;23;20008;-89
2022/06/21 20:30:04;;;;;;;12.30;8.02;;;;;;;;;;6190729;23;20332;-89
2022/06/21 20:32:42;;;;;;;8.50;7.70;;;;;;;;;;6188235;23;20467;-82
2022/06/21 20:35:14;;;;;;;9.35;7.40;;;;;;;;;;6188563;23;20009;-82
2022/06/21 20:37:49;;;;;;;10.68;7.07;;;;;;;;;;6189047;23;20417;-82
2022/06/21 20:40:30;;;;;;;11.93;7.30;;;;;;;;;;6189458;23;20080;-81
2022/06/21 20:43:15;;;;;;;9.65;7.20;;;;;;;;;;6187513;23;20091;-81
2022/06/21 20:45:52;;;;;;;13.13;7.97;;;;;;;;;;6187379;23;20076;-82
2022/06/21 20:48:37;;;;;;;8.15;7.38;;;;;;;;;;6189218;23;20075;-81
2022/06/21 20:51:21;;;;;;;10.98;7.32;;;;;;;;;;6189247;23;20001;-81
2022/06/21 20:54:10;;;;;;;8.25;6.20;;;;;;;;;;6189230;23;20009;-81
2022/06/21 20:56:39;;;;;;;13.60;6.78;;;;;;;;;;6179989;23;20013;-82
2022/06/21 20:59:13;;;;;;;11.95;6.82;;;;;;;;;;6187715;23;20380;-81
2022/06/21 21:01:55;;;;;;;9.13;6.60;;;;;;;;;;6189175;23;20509;-81
2022/06/21 21:04:53;;;;;;;11.93;6.55;;;;;;;;;;6189095;23;20498;-81
2022/06/21 21:07:31;;;;;;;6.93;6.07;;;;;;;;;;6189262;23;20054;-81
2022/06/21 21:10:01;;;;;;;11.52;6.32;;;;;;;;;;6189085;23;20013;-81
2022/06/21 21:12:34;;;;;;;7.63;5.50;;;;;;;;;;6188680;23;20001;-80
2022/06/21 21:15:06;;;;;;;10.85;6.40;;;;;;;;;;6188796;23;20023;-81
2022/06/21 21:17:33;;;;;;;11.73;5.82;;;;;;;;;;6188903;23;20321;-81
2022/06/21 21:20:07;;;;;;;8.23;5.85;;;;;;;;;;6188799;23;20013;-81
2022/06/21 21:22:39;;;;;;;10.93;5.88;;;;;;;;;;6188722;23;20083;-81
2022/06/21 21:25:37;;;;;;;8.93;6.38;;;;;;;;;;6188771;23;20007;-82
2022/06/21 21:28:05;;;;;;;8.87;6.17;;;;;;;;;;6139064;23;20005;-81
2022/06/21 21:30:54;;;;;;;9.65;6.10;;;;;;;;;;6188965;23;20372;-81
2022/06/21 21:33:39;;;;;;;14.90;6.38;;;;;;;;;;6188997;23;20421;-80
2022/06/21 21:36:23;;;;;;;10.70;6.18;;;;;;;;;;6157156;23;20009;-80
2022/06/21 21:39:12;;;;;;;11.70;6.32;;;;;;;;;;6187314;23;20032;-79
2022/06/21 21:41:45;;;;;;;9.10;5.38;;;;;;;;;;6187526;23;20009;-79
2022/06/21 21:44:14;;;;;;;11.43;5.57;;;;;;;;;;6187313;23;19998;-78
